createdAt,value
2023-04-17T00:02:37.341Z,10.55
2023-04-17T00:06:02.490Z,10.62
2023-04-17T00:09:27.703Z,10.65
2023-04-17T00:12:52.967Z,10.66
2023-04-17T00:16:18.177Z,10.66
2023-04-17T00:19:43.373Z,10.63
2023-04-17T00:23:08.588Z,10.51
2023-04-17T00:26:33.769Z,10.46
2023-04-17T00:29:59.024Z,10.48
2023-04-17T00:33:24.213Z,10.47
2023-04-17T00:36:49.433Z,10.49
2023-04-17T00:40:14.621Z,10.53
2023-04-17T00:43:39.851Z,10.51
2023-04-17T00:47:05.048Z,10.49
2023-04-17T00:50:30.235Z,10.49
2023-04-17T00:53:55.458Z,10.54
2023-04-17T00:57:20.931Z,10.53
2023-04-17T01:00:46.175Z,10.43
2023-04-17T01:04:11.596Z,10.37
2023-04-17T01:07:36.582Z,10.33
2023-04-17T01:11:01.766Z,10.31
2023-04-17T01:14:26.979Z,10.33
2023-04-17T01:17:52.238Z,10.34
2023-04-17T01:21:17.578Z,10.35
2023-04-17T01:24:42.646Z,10.31
2023-04-17T01:28:07.858Z,10.31
2023-04-17T01:31:33.064Z,10.35
2023-04-17T01:34:58.276Z,10.4
2023-04-17T01:38:23.523Z,10.42
2023-04-17T01:41:48.714Z,10.41
2023-04-17T01:45:13.910Z,10.34
2023-04-17T01:48:39.132Z,10.33
2023-04-17T01:52:04.333Z,10.36
2023-04-17T01:55:29.569Z,10.39
2023-04-17T01:58:54.757Z,10.39
2023-04-17T02:02:20.244Z,10.32
2023-04-17T02:05:45.182Z,10.31
2023-04-17T02:09:10.557Z,10.29
2023-04-17T02:12:35.626Z,10.25
2023-04-17T02:16:00.844Z,10.28
2023-04-17T02:19:26.023Z,10.25
2023-04-17T02:22:51.241Z,10.26
2023-04-17T02:26:16.466Z,10.25
2023-04-17T02:29:41.678Z,10.19
2023-04-17T02:33:06.898Z,10.11
2023-04-17T02:36:32.068Z,10
2023-04-17T02:39:57.303Z,9.95
2023-04-17T02:43:22.476Z,9.96
2023-04-17T02:46:47.730Z,9.99
2023-04-17T02:50:12.898Z,9.93
2023-04-17T02:53:38.117Z,9.9
2023-04-17T02:57:03.323Z,9.86
2023-04-17T03:00:28.534Z,9.84
2023-04-17T03:03:53.872Z,9.83
2023-04-17T03:07:18.923Z,9.85
2023-04-17T03:10:44.144Z,9.88
2023-04-17T03:14:09.334Z,9.88
2023-04-17T03:17:34.625Z,9.84
2023-04-17T03:20:59.807Z,9.78
2023-04-17T03:24:24.962Z,9.75
2023-04-17T03:27:50.180Z,9.76
2023-04-17T03:31:15.462Z,9.79
2023-04-17T03:34:40.588Z,9.81
2023-04-17T03:38:05.846Z,9.81
2023-04-17T03:41:31.167Z,9.77
2023-04-17T03:44:56.406Z,9.73
2023-04-17T03:48:21.643Z,9.76
2023-04-17T03:51:46.866Z,9.77
2023-04-17T03:55:12.113Z,9.81
2023-04-17T03:58:37.289Z,9.82
2023-04-17T04:02:02.626Z,9.8
2023-04-17T04:05:27.845Z,9.81
2023-04-17T04:08:52.981Z,9.82
2023-04-17T04:12:18.313Z,9.82
2023-04-17T04:15:43.489Z,9.83
2023-04-17T04:19:08.646Z,9.85
2023-04-17T04:22:33.837Z,9.87
2023-04-17T04:25:59.088Z,9.86
2023-04-17T04:29:24.338Z,9.84
2023-04-17T04:32:49.575Z,9.78
2023-04-17T04:36:14.792Z,9.7
2023-04-17T04:39:39.981Z,9.69
2023-04-17T04:43:05.164Z,9.69
2023-04-17T04:46:30.448Z,9.69
2023-04-17T04:49:55.610Z,9.7
2023-04-17T04:53:20.825Z,9.71
2023-04-17T04:56:46.030Z,9.74
2023-04-17T05:00:11.256Z,9.82
2023-04-17T05:03:36.543Z,9.81
2023-04-17T05:07:01.705Z,9.76
2023-04-17T05:10:26.937Z,9.73
2023-04-17T05:13:52.115Z,9.75
2023-04-17T05:17:17.335Z,9.76
2023-04-17T05:20:42.561Z,9.77
2023-04-17T05:24:07.745Z,9.75
2023-04-17T05:27:32.929Z,9.72
2023-04-17T05:30:58.142Z,9.75
2023-04-17T05:34:23.352Z,9.76
2023-04-17T05:37:48.569Z,9.81
2023-04-17T05:41:13.742Z,9.82
2023-04-17T05:44:39.010Z,9.78
2023-04-17T05:48:04.233Z,9.76
2023-04-17T05:51:29.367Z,9.74
2023-04-17T05:54:54.623Z,9.74
2023-04-17T05:58:23.497Z,9.68
2023-04-17T06:01:44.984Z,9.62
2023-04-17T06:05:10.299Z,9.56
2023-04-17T06:08:35.428Z,9.55
2023-04-17T06:12:00.657Z,9.56
2023-04-17T06:15:25.832Z,9.58
2023-04-17T06:18:51.040Z,9.6
2023-04-17T06:22:16.276Z,9.64
2023-04-17T06:25:41.469Z,9.7
2023-04-17T06:29:06.704Z,9.78
2023-04-17T06:32:31.942Z,9.85
2023-04-17T06:35:57.232Z,9.9
2023-04-17T06:39:22.472Z,9.92
2023-04-17T06:42:47.720Z,9.95
2023-04-17T06:46:13.033Z,9.99
2023-04-17T06:49:38.239Z,10.01
2023-04-17T06:53:03.434Z,9.98
2023-04-17T06:56:28.698Z,9.99
2023-04-17T06:59:53.875Z,10.02
2023-04-17T07:03:19.250Z,10.03
2023-04-17T07:06:44.326Z,9.96
2023-04-17T07:10:09.570Z,9.94
2023-04-17T07:13:34.793Z,9.96
2023-04-17T07:17:00.034Z,9.94
2023-04-17T07:20:25.331Z,9.98
2023-04-17T07:23:50.462Z,10
2023-04-17T07:27:15.680Z,10.02
2023-04-17T07:30:40.882Z,10.02
2023-04-17T07:34:06.098Z,10.01
2023-04-17T07:37:31.357Z,10.04
2023-04-17T07:40:56.559Z,10.09
2023-04-17T07:44:21.749Z,10.09
2023-04-17T07:47:47.884Z,10.05
2023-04-17T07:51:13.018Z,9.98
2023-04-17T07:54:38.855Z,9.96
2023-04-17T07:58:04.080Z,9.92
2023-04-17T08:01:29.277Z,9.91
2023-04-17T08:04:54.636Z,9.95
2023-04-17T08:08:19.802Z,10.02
2023-04-17T08:11:56.075Z,10.02
2023-04-17T08:15:10.282Z,9.96
2023-04-17T08:18:35.534Z,10.02
2023-04-17T08:22:01.348Z,10.06
2023-04-17T08:25:26.557Z,10.15
2023-04-17T08:28:51.800Z,10.21
2023-04-17T08:32:17.188Z,10.22
2023-04-17T08:35:42.377Z,10.19
2023-04-17T08:39:07.693Z,10.17
2023-04-17T08:42:32.887Z,10.14
2023-04-17T08:45:58.140Z,10.11
2023-04-17T08:49:23.326Z,10.08
2023-04-17T08:52:48.563Z,10.04
2023-04-17T08:56:13.761Z,10
2023-04-17T08:59:39.053Z,10
2023-04-17T09:03:04.365Z,9.89
2023-04-17T09:06:29.472Z,9.84
2023-04-17T09:09:54.725Z,9.78
2023-04-17T09:13:19.917Z,9.8
2023-04-17T09:16:45.152Z,9.85
2023-04-17T09:20:10.393Z,9.94
2023-04-17T09:23:35.590Z,10.02
2023-04-17T09:27:00.821Z,10.03
2023-04-17T09:30:26.026Z,10.02
2023-04-17T09:33:51.234Z,10.02
2023-04-17T09:37:16.596Z,10.02
2023-04-17T09:40:41.660Z,10.02
2023-04-17T09:44:06.852Z,9.99
2023-04-17T09:47:32.113Z,9.99
2023-04-17T09:50:57.278Z,10.02
2023-04-17T09:54:22.511Z,10.02
2023-04-17T09:57:47.710Z,10.08
2023-04-17T10:01:13.006Z,10.17
2023-04-17T10:04:38.245Z,10.23
2023-04-17T10:08:03.394Z,10.24
2023-04-17T10:11:29.205Z,10.21
2023-04-17T10:14:53.837Z,10.18
2023-04-17T10:18:19.098Z,10.16
2023-04-17T10:21:45.555Z,10.17
2023-04-17T10:25:10.753Z,10.23
2023-04-17T10:28:36.005Z,10.22
2023-04-17T10:32:01.213Z,10.22
2023-04-17T10:35:26.424Z,10.22
2023-04-17T10:38:51.653Z,10.19
2023-04-17T10:42:16.955Z,10.21
2023-04-17T10:45:42.158Z,10.2
2023-04-17T10:49:07.405Z,10.14
2023-04-17T10:52:32.635Z,10.09
2023-04-17T10:55:57.837Z,10.01
2023-04-17T10:59:23.044Z,9.94
2023-04-17T11:02:48.353Z,9.92
2023-04-17T11:06:13.493Z,9.89
2023-04-17T11:09:38.707Z,9.86
2023-04-17T11:13:03.967Z,9.88
2023-04-17T11:16:29.171Z,9.9
2023-04-17T11:19:54.407Z,9.87
2023-04-17T11:23:19.598Z,9.86
2023-04-17T11:26:44.850Z,9.83
2023-04-17T11:30:10.083Z,9.78
2023-04-17T11:33:35.289Z,9.7
2023-04-17T11:37:00.530Z,9.68
2023-04-17T11:40:25.841Z,9.71
2023-04-17T11:43:51.075Z,9.74
2023-04-17T11:47:16.761Z,9.76
2023-04-17T11:50:42.018Z,9.79
2023-04-17T11:54:07.257Z,9.78
2023-04-17T11:57:32.482Z,9.81
2023-04-17T12:00:57.684Z,9.83
2023-04-17T12:04:23.085Z,9.88
2023-04-17T12:07:48.111Z,9.93
2023-04-17T12:11:14.034Z,9.97
2023-04-17T12:14:39.931Z,10
2023-04-17T12:18:05.168Z,10.03
2023-04-17T12:21:30.334Z,10.1
2023-04-17T12:24:55.512Z,10.14
2023-04-17T12:28:20.779Z,10.15
2023-04-17T12:31:46.001Z,10.15
2023-04-17T12:35:11.209Z,10.15
2023-04-17T12:38:37.154Z,10.14
2023-04-17T12:42:02.309Z,10.16
2023-04-17T12:45:27.579Z,10.15
2023-04-17T12:48:52.715Z,10.16
2023-04-17T12:52:17.943Z,10.12
2023-04-17T12:55:43.166Z,10.13
2023-04-17T12:59:08.364Z,10.15
2023-04-17T13:02:33.806Z,10.15
2023-04-17T13:05:58.848Z,10.2
2023-04-17T13:09:24.085Z,10.17
2023-04-17T13:12:49.361Z,10.16
2023-04-17T13:16:14.580Z,10.11
2023-04-17T13:19:39.856Z,10.07
2023-04-17T13:23:05.004Z,10.11
2023-04-17T13:26:30.263Z,10.17
2023-04-17T13:29:55.476Z,10.22
2023-04-17T13:33:20.772Z,10.25
2023-04-17T13:36:46.045Z,10.32
2023-04-17T13:40:11.168Z,10.37
2023-04-17T13:43:36.428Z,10.43
2023-04-17T13:47:01.657Z,10.47
2023-04-17T13:50:26.927Z,10.56
2023-04-17T13:53:52.196Z,10.61
2023-04-17T13:57:17.409Z,10.66
2023-04-17T14:00:42.650Z,10.71
2023-04-17T14:04:08.160Z,10.65
2023-04-17T14:07:33.073Z,10.65
2023-04-17T14:10:58.309Z,10.66
2023-04-17T14:14:23.501Z,10.6
2023-04-17T14:17:48.781Z,10.5
2023-04-17T14:21:13.975Z,10.41
2023-04-17T14:24:39.234Z,10.35
2023-04-17T14:28:05.008Z,10.3
2023-04-17T14:31:30.189Z,10.28
2023-04-17T14:34:55.419Z,10.29
2023-04-17T14:38:20.686Z,10.31
2023-04-17T14:41:45.866Z,10.32
2023-04-17T14:45:11.151Z,10.35
2023-04-17T14:48:41.392Z,10.4
2023-04-17T14:52:01.535Z,10.41
2023-04-17T14:55:26.765Z,10.4
2023-04-17T14:58:51.989Z,10.35
2023-04-17T15:02:17.310Z,10.32
2023-04-17T15:05:42.524Z,10.24
2023-04-17T15:40:12.958Z,7.87
2023-04-17T15:43:38.162Z,8.84
2023-04-17T15:47:03.405Z,9.05
2023-04-17T15:50:28.620Z,9.26
2023-04-17T15:53:53.846Z,9.4
2023-04-17T15:57:19.183Z,9.52
2023-04-17T16:00:44.307Z,9.61
2023-04-17T16:04:09.614Z,9.69
2023-04-17T16:07:34.725Z,9.74
2023-04-17T16:10:59.971Z,9.78
2023-04-17T16:14:25.204Z,9.78
2023-04-17T16:17:50.418Z,9.72
2023-04-17T16:21:15.618Z,9.7
2023-04-17T16:24:40.845Z,9.72
2023-04-17T16:28:06.064Z,9.77
2023-04-17T16:31:31.315Z,9.76
2023-04-17T16:34:56.477Z,9.75
2023-04-17T16:38:21.709Z,9.77
2023-04-17T16:41:46.940Z,9.8
2023-04-17T16:45:12.193Z,9.86
2023-04-17T16:48:37.543Z,9.89
2023-04-17T16:52:02.606Z,9.98
2023-04-17T16:55:27.870Z,10.01
2023-04-17T16:58:53.077Z,10.01
2023-04-17T17:02:18.379Z,10.06
2023-04-17T17:05:43.592Z,10.02
2023-04-17T17:09:08.772Z,10.01
2023-04-17T17:12:33.998Z,9.99
2023-04-17T17:15:59.186Z,9.96
2023-04-17T17:19:24.464Z,9.99
2023-04-17T17:22:49.702Z,10.02
2023-04-17T17:26:14.899Z,10.04
2023-04-17T17:29:40.118Z,10.06
2023-04-17T17:33:05.347Z,10.01
2023-04-17T17:36:30.526Z,9.87
2023-04-17T17:39:55.785Z,9.8
2023-04-17T17:43:20.988Z,9.75
2023-04-17T17:46:46.240Z,9.69
2023-04-17T17:50:11.494Z,9.71
2023-04-17T17:53:36.690Z,9.68
2023-04-17T17:57:01.927Z,9.63
2023-04-17T18:00:27.203Z,9.58
2023-04-17T18:03:52.483Z,9.53
2023-04-17T18:07:17.590Z,9.55
2023-04-17T18:10:42.815Z,9.57
2023-04-17T18:14:08.039Z,9.58
2023-04-17T18:17:33.303Z,9.58
2023-04-17T18:20:58.478Z,9.53
2023-04-17T18:24:23.720Z,9.51
2023-04-17T18:27:49.025Z,9.48
2023-04-17T18:31:14.308Z,9.45
2023-04-17T18:34:39.466Z,9.41
2023-04-17T18:38:04.659Z,9.37
2023-04-17T18:41:29.880Z,9.34
2023-04-17T18:44:55.088Z,9.27
2023-04-17T18:48:20.325Z,9.22
2023-04-17T18:51:45.578Z,9.2
2023-04-17T18:55:10.846Z,9.18
2023-04-17T18:58:36.051Z,9.17
2023-04-17T19:02:01.300Z,9.15
2023-04-17T19:05:26.584Z,9.11
2023-04-17T19:08:51.775Z,9.05
2023-04-17T19:12:16.982Z,8.93
2023-04-17T19:15:42.212Z,8.84
2023-04-17T19:19:07.446Z,8.82
2023-04-17T19:22:32.662Z,8.8
2023-04-17T19:25:57.869Z,8.8
2023-04-17T19:29:23.089Z,8.79
2023-04-17T19:32:48.415Z,8.8
2023-04-17T19:36:13.622Z,8.79
2023-04-17T19:39:38.933Z,8.77
2023-04-17T19:43:04.030Z,8.74
2023-04-17T19:46:29.254Z,8.69
2023-04-17T19:49:54.508Z,8.64
2023-04-17T19:53:19.706Z,8.6
2023-04-17T19:56:44.945Z,8.61
2023-04-17T20:00:10.104Z,8.57
2023-04-17T20:03:35.663Z,8.54
2023-04-17T20:07:00.599Z,8.48
2023-04-17T20:10:25.857Z,8.41
2023-04-17T20:13:51.079Z,8.34
2023-04-17T20:17:16.347Z,8.26
2023-04-17T20:20:41.485Z,8.22
2023-04-17T20:24:06.729Z,8.21
2023-04-17T20:27:31.930Z,8.24
2023-04-17T20:30:57.209Z,8.25
2023-04-17T20:34:22.370Z,8.23
2023-04-17T20:37:47.587Z,8.22
2023-04-17T20:41:12.856Z,8.2
2023-04-17T20:44:38.059Z,8.17
2023-04-17T20:48:03.335Z,8.18
2023-04-17T20:51:28.534Z,8.15
2023-04-17T20:54:53.761Z,8.13
2023-04-17T20:58:18.951Z,8.13
2023-04-17T21:01:44.201Z,8.12
2023-04-17T21:05:09.491Z,8.11
2023-04-17T21:08:34.582Z,8.05
2023-04-17T21:11:59.820Z,8
2023-04-17T21:15:25.026Z,7.94
2023-04-17T21:18:50.276Z,7.94
2023-04-17T21:22:15.561Z,7.93
2023-04-17T21:25:40.732Z,7.93
2023-04-17T21:29:05.951Z,7.93
2023-04-17T21:32:31.165Z,7.95
2023-04-17T21:35:56.374Z,7.99
2023-04-17T21:39:21.680Z,7.96
2023-04-17T21:42:46.820Z,7.89
2023-04-17T21:46:12.079Z,7.91
2023-04-17T21:49:37.231Z,7.91
2023-04-17T21:53:02.470Z,7.91
2023-04-17T21:56:27.747Z,7.91
2023-04-17T21:59:52.937Z,7.89
2023-04-17T22:03:18.166Z,7.87
2023-04-17T22:06:43.363Z,7.89
2023-04-17T22:10:08.595Z,7.89
2023-04-17T22:13:33.864Z,7.89
2023-04-17T22:16:59.213Z,7.89
2023-04-17T22:20:24.325Z,7.88
2023-04-17T22:23:49.561Z,7.91
2023-04-17T22:27:14.806Z,7.89
2023-04-17T22:30:40.126Z,7.82
2023-04-17T22:34:05.243Z,7.81
2023-04-17T22:37:30.479Z,7.79
2023-04-17T22:40:55.679Z,7.76
2023-04-17T22:44:20.907Z,7.7
2023-04-17T22:47:46.161Z,7.66
2023-04-17T22:51:11.316Z,7.65
2023-04-17T22:54:36.499Z,7.64
2023-04-17T22:58:01.716Z,7.67
2023-04-17T23:01:26.932Z,7.66
2023-04-17T23:04:52.233Z,7.7
2023-04-17T23:08:17.368Z,7.71
2023-04-17T23:11:42.550Z,7.74
2023-04-17T23:15:07.754Z,7.74
2023-04-17T23:18:32.980Z,7.72
2023-04-17T23:21:58.513Z,7.74
2023-04-17T23:25:23.625Z,7.71
2023-04-17T23:28:48.813Z,7.71
2023-04-17T23:32:14.018Z,7.79
2023-04-17T23:35:39.255Z,7.83
2023-04-17T23:39:04.471Z,7.86
2023-04-17T23:42:29.650Z,7.85
2023-04-17T23:45:54.905Z,7.81
2023-04-17T23:49:20.129Z,7.8
2023-04-17T23:52:45.360Z,7.8
2023-04-17T23:56:10.542Z,7.83
2023-04-17T23:59:35.774Z,7.84
